Time;durP1;ratioP1;P1;durP2;ratioP2;P2;SDS_P1;SDS_P2;PMS_P1;PMS_P2;Temp;Humidity;BMP_temperature;BMP_pressure;BME280_temperature;BME280_humidity;BME280_pressure;Samples;Min_cycle;Max_cycle;Signal;HPM_P1;HPM_P2
2023/10/03 00:00:51;;;;;;;28.55;7.72;;;;;;;;;;10486248;28;20075;-72
2023/10/03 00:05:54;;;;;;;30.10;8.45;;;;;;;;;;10482210;28;20040;-74
2023/10/03 00:10:58;;;;;;;30.35;8.52;;;;;;;;;;10468184;28;20056;-75
2023/10/03 00:16:03;;;;;;;28.37;8.80;;;;;;;;;;10484787;28;20056;-73
2023/10/03 00:21:06;;;;;;;27.20;7.82;;;;;;;;;;10470786;28;20111;-75
2023/10/03 00:26:17;;;;;;;29.17;8.93;;;;;;;;;;10487370;28;20044;-74
2023/10/03 00:31:22;;;;;;;30.13;8.18;;;;;;;;;;10482418;28;20064;-74
2023/10/03 00:36:26;;;;;;;31.60;8.30;;;;;;;;;;10483936;28;20132;-77
2023/10/03 00:41:30;;;;;;;29.45;7.70;;;;;;;;;;10481155;28;20509;-73
2023/10/03 00:46:34;;;;;;;34.47;8.05;;;;;;;;;;10480848;28;20504;-73
2023/10/03 00:51:40;;;;;;;30.70;7.47;;;;;;;;;;10484307;28;20052;-74
2023/10/03 00:56:45;;;;;;;26.67;7.25;;;;;;;;;;10481097;28;20088;-73
2023/10/03 01:01:49;;;;;;;23.48;6.13;;;;;;;;;;10481439;28;20066;-75
2023/10/03 01:06:52;;;;;;;24.02;6.57;;;;;;;;;;10480126;28;20116;-75
2023/10/03 01:11:56;;;;;;;;;;;;;;;;;;10477073;28;20505;-75
2023/10/03 01:17:01;;;;;;;18.63;5.80;;;;;;;;;;10479248;28;19931;-75
2023/10/03 01:22:05;;;;;;;26.25;6.63;;;;;;;;;;10477146;28;20048;-75
2023/10/03 01:27:09;;;;;;;28.27;7.40;;;;;;;;;;10483657;28;20124;-75
2023/10/03 01:32:12;;;;;;;25.20;7.25;;;;;;;;;;10481252;28;20041;-74
2023/10/03 01:37:15;;;;;;;25.80;7.90;;;;;;;;;;10476775;28;20064;-73
2023/10/03 01:42:22;;;;;;;26.60;6.60;;;;;;;;;;10477434;28;20041;-74
2023/10/03 01:47:24;;;;;;;25.83;7.20;;;;;;;;;;10479259;28;20098;-73
2023/10/03 01:52:27;;;;;;;24.13;7.00;;;;;;;;;;10481679;28;20048;-73
2023/10/03 01:57:33;;;;;;;23.90;7.18;;;;;;;;;;10480220;28;20036;-75
2023/10/03 02:02:36;;;;;;;27.88;6.95;;;;;;;;;;10479904;28;20037;-74
2023/10/03 02:07:39;;;;;;;17.37;3.73;;;;;;;;;;10482020;28;20040;-73
2023/10/03 02:12:48;;;;;;;25.85;7.00;;;;;;;;;;10481917;28;20410;-73
2023/10/03 02:17:52;;;;;;;23.52;6.72;;;;;;;;;;10475425;28;20047;-73
2023/10/03 02:22:56;;;;;;;18.77;5.18;;;;;;;;;;10482269;28;20041;-73
2023/10/03 02:28:00;;;;;;;26.30;7.10;;;;;;;;;;10482230;28;20053;-74
2023/10/03 02:33:10;;;;;;;26.73;5.95;;;;;;;;;;10483368;28;20047;-73
2023/10/03 02:38:14;;;;;;;23.95;6.18;;;;;;;;;;10473658;28;20036;-75
2023/10/03 02:43:18;;;;;;;23.45;6.75;;;;;;;;;;10477714;28;20056;-74
2023/10/03 02:48:21;;;;;;;25.65;6.60;;;;;;;;;;10481834;28;20097;-73
2023/10/03 02:53:26;;;;;;;22.70;6.22;;;;;;;;;;10479382;28;20068;-73
2023/10/03 02:58:28;;;;;;;;;;;;;;;;;;10482637;28;20095;-72
2023/10/03 03:03:33;;;;;;;24.20;6.72;;;;;;;;;;10480183;28;19928;-75
2023/10/03 03:08:39;;;;;;;24.17;6.57;;;;;;;;;;10484935;28;20060;-74
2023/10/03 03:13:43;;;;;;;15.55;3.03;;;;;;;;;;10489129;28;20092;-73
2023/10/03 03:18:50;;;;;;;17.67;4.95;;;;;;;;;;10482683;28;20049;-74
2023/10/03 03:24:00;;;;;;;21.17;5.65;;;;;;;;;;10485473;28;20121;-74
2023/10/03 03:29:16;;;;;;;23.60;5.95;;;;;;;;;;10484487;28;20051;-75
2023/10/03 03:34:21;;;;;;;25.05;6.15;;;;;;;;;;10488211;28;20041;-75
2023/10/03 03:39:26;;;;;;;26.90;7.18;;;;;;;;;;10481289;28;20040;-74
2023/10/03 03:44:29;;;;;;;24.10;6.50;;;;;;;;;;10486306;28;20549;-74
2023/10/03 03:49:34;;;;;;;14.48;3.95;;;;;;;;;;10482294;28;20052;-75
2023/10/03 03:54:36;;;;;;;23.20;6.32;;;;;;;;;;10486636;28;20139;-76
2023/10/03 03:59:39;;;;;;;22.67;6.28;;;;;;;;;;10487619;28;20136;-76
2023/10/03 04:04:44;;;;;;;24.65;6.75;;;;;;;;;;10469866;28;20067;-75
2023/10/03 04:09:47;;;;;;;24.75;5.95;;;;;;;;;;10480843;28;20048;-76
2023/10/03 04:14:49;;;;;;;22.55;5.75;;;;;;;;;;10487935;28;20506;-74
2023/10/03 04:19:53;;;;;;;22.30;5.87;;;;;;;;;;10480459;28;20040;-74
2023/10/03 04:24:56;;;;;;;21.23;5.72;;;;;;;;;;10488077;28;20037;-74
2023/10/03 04:29:59;;;;;;;26.30;6.25;;;;;;;;;;10483139;28;20051;-74
2023/10/03 04:35:05;;;;;;;21.77;6.40;;;;;;;;;;10479561;28;20085;-73
2023/10/03 04:40:13;;;;;;;21.63;5.53;;;;;;;;;;10478582;28;20040;-73
2023/10/03 04:45:18;;;;;;;17.70;4.60;;;;;;;;;;10481544;28;20040;-73
2023/10/03 04:50:25;;;;;;;27.42;6.70;;;;;;;;;;10483637;28;20044;-74
2023/10/03 04:55:28;;;;;;;21.15;5.28;;;;;;;;;;10474226;28;20128;-73
2023/10/03 05:00:31;;;;;;;21.75;5.55;;;;;;;;;;10482231;28;20064;-73
2023/10/03 05:05:35;;;;;;;17.17;4.97;;;;;;;;;;10479332;28;20127;-73
2023/10/03 05:10:38;;;;;;;22.27;6.10;;;;;;;;;;10476969;28;20163;-72
2023/10/03 05:15:41;;;;;;;20.80;5.47;;;;;;;;;;10484125;28;20068;-75
2023/10/03 05:20:45;;;;;;;20.15;5.40;;;;;;;;;;10473880;28;20064;-74
2023/10/03 05:25:48;;;;;;;20.95;5.03;;;;;;;;;;10481095;28;20105;-73
2023/10/03 05:30:52;;;;;;;21.40;6.03;;;;;;;;;;10481472;28;20041;-75
2023/10/03 05:35:57;;;;;;;20.92;5.70;;;;;;;;;;10477915;28;20075;-75
2023/10/03 05:41:00;;;;;;;16.15;4.72;;;;;;;;;;10479528;28;20214;-75
2023/10/03 05:46:05;;;;;;;14.30;3.17;;;;;;;;;;10481908;28;20135;-74
2023/10/03 05:51:09;;;;;;;19.42;6.32;;;;;;;;;;10475661;28;20121;-73
2023/10/03 05:56:12;;;;;;;20.88;6.00;;;;;;;;;;10475860;28;20051;-72
2023/10/03 06:01:16;;;;;;;18.60;4.47;;;;;;;;;;10480105;28;20049;-73
2023/10/03 06:06:21;;;;;;;17.63;5.57;;;;;;;;;;10477771;28;20443;-73
2023/10/03 06:11:25;;;;;;;20.25;5.93;;;;;;;;;;10479617;28;21279;-74
2023/10/03 06:16:31;;;;;;;19.60;5.50;;;;;;;;;;10480237;28;20040;-74
2023/10/03 06:21:35;;;;;;;21.92;5.53;;;;;;;;;;10480114;28;20036;-75
2023/10/03 06:26:38;;;;;;;12.20;4.03;;;;;;;;;;10479470;28;20052;-73
2023/10/03 06:31:41;;;;;;;16.75;5.00;;;;;;;;;;10479309;28;20036;-73
2023/10/03 06:36:46;;;;;;;17.75;5.40;;;;;;;;;;10474237;28;20067;-74
2023/10/03 06:41:49;;;;;;;18.75;5.22;;;;;;;;;;10478158;28;20113;-74
2023/10/03 06:46:52;;;;;;;15.65;5.32;;;;;;;;;;10482926;28;20127;-74
2023/10/03 06:51:57;;;;;;;17.85;5.90;;;;;;;;;;10486291;28;20127;-74
2023/10/03 06:57:00;;;;;;;16.50;6.05;;;;;;;;;;10484302;28;20144;-74
2023/10/03 07:02:04;;;;;;;19.23;5.43;;;;;;;;;;10487229;28;20037;-74
2023/10/03 07:07:08;;;;;;;17.77;6.00;;;;;;;;;;10471380;28;20040;-73
2023/10/03 07:12:11;;;;;;;16.55;5.47;;;;;;;;;;10483515;28;20119;-75
2023/10/03 07:17:14;;;;;;;16.30;4.95;;;;;;;;;;10487435;28;20044;-74
2023/10/03 07:22:19;;;;;;;14.82;5.40;;;;;;;;;;10475173;28;20044;-73
2023/10/03 07:27:22;;;;;;;17.02;6.45;;;;;;;;;;10485673;28;20126;-73
2023/10/03 07:32:24;;;;;;;13.27;4.85;;;;;;;;;;10487977;28;20049;-70
2023/10/03 07:37:29;;;;;;;10.65;4.47;;;;;;;;;;10487673;28;20162;-70
2023/10/03 07:42:32;;;;;;;15.02;6.20;;;;;;;;;;10487646;28;20547;-70
2023/10/03 07:47:37;;;;;;;14.07;5.43;;;;;;;;;;10485163;28;20049;-70
2023/10/03 07:52:41;;;;;;;14.68;5.72;;;;;;;;;;10483410;28;20515;-70
2023/10/03 07:57:44;;;;;;;16.63;5.85;;;;;;;;;;10484553;28;20032;-71
2023/10/03 08:02:49;;;;;;;13.32;5.57;;;;;;;;;;10486214;28;20079;-69
2023/10/03 08:07:54;;;;;;;13.88;5.63;;;;;;;;;;10486700;28;20045;-69
2023/10/03 08:12:59;;;;;;;13.35;5.97;;;;;;;;;;10485507;28;20056;-69
2023/10/03 08:18:03;;;;;;;15.00;6.35;;;;;;;;;;10488517;28;20136;-70
2023/10/03 08:23:09;;;;;;;10.65;4.38;;;;;;;;;;10485544;28;20028;-70
2023/10/03 08:28:12;;;;;;;12.65;6.07;;;;;;;;;;10481810;28;20397;-72
2023/10/03 08:33:16;;;;;;;13.48;6.13;;;;;;;;;;10482807;28;20041;-74
2023/10/03 08:38:24;;;;;;;13.93;6.35;;;;;;;;;;10488149;28;20056;-71
2023/10/03 08:43:27;;;;;;;12.85;5.60;;;;;;;;;;10484766;28;20098;-74
2023/10/03 08:48:31;;;;;;;13.27;5.88;;;;;;;;;;10484267;28;20401;-75
2023/10/03 08:53:40;;;;;;;9.98;4.28;;;;;;;;;;10479695;28;20399;-74
2023/10/03 08:58:48;;;;;;;11.30;6.10;;;;;;;;;;10482192;28;20037;-74
2023/10/03 09:03:52;;;;;;;11.40;5.95;;;;;;;;;;10479402;28;21168;-74
2023/10/03 09:09:08;;;;;;;9.82;5.38;;;;;;;;;;10477523;28;20449;-75
2023/10/03 09:14:14;;;;;;;11.20;5.50;;;;;;;;;;10474863;28;20044;-74
2023/10/03 09:19:23;;;;;;;8.90;5.40;;;;;;;;;;10476241;28;20144;-74
2023/10/03 09:24:28;;;;;;;10.48;5.30;;;;;;;;;;10477612;28;20477;-74
2023/10/03 09:29:30;;;;;;;12.48;6.10;;;;;;;;;;10480347;28;20041;-74
2023/10/03 09:34:39;;;;;;;12.95;5.28;;;;;;;;;;10483511;28;20139;-73
2023/10/03 09:39:49;;;;;;;8.88;5.07;;;;;;;;;;10472226;28;20055;-73
2023/10/03 09:44:57;;;;;;;10.68;5.03;;;;;;;;;;10480967;28;20209;-74
2023/10/03 09:50:04;;;;;;;13.07;5.93;;;;;;;;;;10482973;28;20061;-74
2023/10/03 09:55:21;;;;;;;10.18;5.32;;;;;;;;;;10477137;28;20029;-74
2023/10/03 10:00:38;;;;;;;7.83;5.10;;;;;;;;;;10476381;28;20110;-74
2023/10/03 10:05:59;;;;;;;8.02;4.57;;;;;;;;;;10480599;28;20052;-74
2023/10/03 10:11:09;;;;;;;;;;;;;;;;;;10483417;28;20464;-74
2023/10/03 10:16:16;;;;;;;7.40;4.25;;;;;;;;;;10479919;28;19932;-74
2023/10/03 10:21:26;;;;;;;7.15;3.88;;;;;;;;;;10477665;28;20127;-73
2023/10/03 10:26:30;;;;;;;7.82;4.53;;;;;;;;;;10480298;28;20126;-73
2023/10/03 10:31:39;;;;;;;8.57;5.25;;;;;;;;;;10475224;28;20056;-75
2023/10/03 10:36:54;;;;;;;9.17;4.83;;;;;;;;;;10476420;28;20121;-74
2023/10/03 10:42:10;;;;;;;9.15;4.30;;;;;;;;;;10478929;28;20068;-75
2023/10/03 10:47:14;;;;;;;8.07;3.67;;;;;;;;;;10475655;28;20371;-73
2023/10/03 10:52:17;;;;;;;8.23;4.70;;;;;;;;;;10480864;28;20051;-74
2023/10/03 10:57:25;;;;;;;8.13;4.63;;;;;;;;;;10479141;28;20127;-74
2023/10/03 11:02:33;;;;;;;8.05;4.18;;;;;;;;;;10477949;28;20636;-74
2023/10/03 11:07:36;;;;;;;8.23;4.47;;;;;;;;;;10476330;28;20036;-73
2023/10/03 11:12:39;;;;;;;6.47;3.70;;;;;;;;;;10477708;28;20037;-72
2023/10/03 11:17:49;;;;;;;9.90;4.38;;;;;;;;;;10480575;28;20040;-73
2023/10/03 11:22:52;;;;;;;9.35;4.07;;;;;;;;;;10475752;28;20058;-73
2023/10/03 11:27:56;;;;;;;7.25;3.55;;;;;;;;;;10479481;28;20063;-74
2023/10/03 11:33:02;;;;;;;8.63;3.60;;;;;;;;;;10488244;28;20040;-72
2023/10/03 11:38:06;;;;;;;7.68;3.50;;;;;;;;;;10485540;28;20075;-73
2023/10/03 11:43:09;;;;;;;6.93;4.07;;;;;;;;;;10484807;28;20386;-73
2023/10/03 11:48:18;;;;;;;9.60;4.25;;;;;;;;;;10485404;28;20037;-74
2023/10/03 11:53:21;;;;;;;10.82;3.97;;;;;;;;;;10484331;28;20044;-74
2023/10/03 11:58:26;;;;;;;11.75;4.60;;;;;;;;;;10482552;28;20044;-73
2023/10/03 12:03:31;;;;;;;7.70;3.53;;;;;;;;;;10486204;28;20040;-73
2023/10/03 12:08:36;;;;;;;10.40;3.67;;;;;;;;;;10476205;28;20110;-74
2023/10/03 12:13:39;;;;;;;6.75;3.25;;;;;;;;;;10481998;28;20041;-73
2023/10/03 12:18:43;;;;;;;8.18;3.97;;;;;;;;;;10480491;28;20067;-72
2023/10/03 12:23:46;;;;;;;8.90;3.90;;;;;;;;;;10477654;28;20120;-73
2023/10/03 12:28:49;;;;;;;7.28;4.00;;;;;;;;;;10485205;28;20032;-73
2023/10/03 12:33:55;;;;;;;6.70;3.78;;;;;;;;;;10477452;28;20106;-69
2023/10/03 12:38:59;;;;;;;7.03;4.10;;;;;;;;;;10473848;28;20052;-71
2023/10/03 12:44:02;;;;;;;7.28;3.20;;;;;;;;;;10482271;28;20135;-70
2023/10/03 12:49:08;;;;;;;6.82;3.80;;;;;;;;;;10482670;28;20072;-70
2023/10/03 12:54:12;;;;;;;8.07;3.53;;;;;;;;;;10483382;28;20044;-70
2023/10/03 12:59:15;;;;;;;6.32;3.45;;;;;;;;;;10476779;28;20611;-73
2023/10/03 13:04:22;;;;;;;5.40;2.90;;;;;;;;;;10481433;28;20066;-72
2023/10/03 13:09:25;;;;;;;7.80;3.38;;;;;;;;;;10485752;28;20072;-72
2023/10/03 13:14:27;;;;;;;7.10;3.50;;;;;;;;;;10478969;28;20101;-71
2023/10/03 13:19:31;;;;;;;5.22;2.83;;;;;;;;;;10478467;28;20071;-71
2023/10/03 13:24:35;;;;;;;5.45;3.08;;;;;;;;;;10462806;28;20405;-70
2023/10/03 13:29:39;;;;;;;7.43;3.38;;;;;;;;;;10450850;28;20068;-69
2023/10/03 13:34:43;;;;;;;5.25;2.90;;;;;;;;;;10477649;28;20119;-70
2023/10/03 13:39:47;;;;;;;7.32;3.13;;;;;;;;;;10477835;28;20040;-71
2023/10/03 13:44:53;;;;;;;5.50;2.67;;;;;;;;;;10477142;28;20052;-71
2023/10/03 13:49:57;;;;;;;6.43;3.10;;;;;;;;;;10469283;28;20055;-71
2023/10/03 13:55:00;;;;;;;7.55;3.15;;;;;;;;;;10480417;28;20051;-71
2023/10/03 14:00:06;;;;;;;5.47;2.70;;;;;;;;;;10478305;28;20044;-71
2023/10/03 14:05:11;;;;;;;6.75;3.17;;;;;;;;;;10476249;28;20041;-70
2023/10/03 14:10:15;;;;;;;6.80;2.80;;;;;;;;;;10473459;28;20541;-71
2023/10/03 14:15:20;;;;;;;5.63;2.88;;;;;;;;;;10471914;28;20048;-72
2023/10/03 14:20:32;;;;;;;6.47;2.92;;;;;;;;;;10477989;28;20074;-71
2023/10/03 14:25:35;;;;;;;7.53;3.20;;;;;;;;;;10478659;28;20064;-72
2023/10/03 14:30:39;;;;;;;7.32;2.80;;;;;;;;;;10478463;28;20098;-70
2023/10/03 14:35:43;;;;;;;5.88;3.10;;;;;;;;;;10480693;28;20119;-70
2023/10/03 14:40:46;;;;;;;6.63;3.25;;;;;;;;;;10478286;28;20133;-70
2023/10/03 14:45:50;;;;;;;6.50;3.30;;;;;;;;;;10479320;28;20115;-71
2023/10/03 14:50:57;;;;;;;8.63;3.42;;;;;;;;;;10473165;28;20191;-68
2023/10/03 14:56:03;;;;;;;5.97;3.22;;;;;;;;;;10477708;28;20123;-71
2023/10/03 15:01:06;;;;;;;4.70;3.08;;;;;;;;;;10477139;28;20056;-69
2023/10/03 15:06:11;;;;;;;5.90;2.50;;;;;;;;;;10486272;28;20040;-71
2023/10/03 15:11:14;;;;;;;6.78;3.25;;;;;;;;;;10488142;28;20141;-71
2023/10/03 15:16:16;;;;;;;;;;;;;;;;;;10488640;28;20135;-70
2023/10/03 15:21:22;;;;;;;6.80;3.55;;;;;;;;;;10466351;28;20122;-70
2023/10/03 15:26:24;;;;;;;5.00;2.75;;;;;;;;;;10485531;28;20044;-72
2023/10/03 15:31:27;;;;;;;7.05;3.72;;;;;;;;;;10489196;28;20501;-72
2023/10/03 15:36:35;;;;;;;9.63;3.70;;;;;;;;;;10486853;28;20086;-72
2023/10/03 15:41:38;;;;;;;4.60;2.72;;;;;;;;;;10484365;28;20072;-72
2023/10/03 15:46:41;;;;;;;8.32;3.42;;;;;;;;;;10486320;28;20186;-72
2023/10/03 15:51:47;;;;;;;6.95;3.55;;;;;;;;;;10492991;28;20566;-72
2023/10/03 15:56:50;;;;;;;7.43;3.13;;;;;;;;;;10485863;28;20118;-71
2023/10/03 16:01:54;;;;;;;10.27;3.85;;;;;;;;;;10487010;28;20045;-71
2023/10/03 16:06:58;;;;;;;9.10;3.38;;;;;;;;;;10489727;28;21881;-73
2023/10/03 16:12:01;;;;;;;6.90;3.40;;;;;;;;;;10488454;28;20120;-71
2023/10/03 16:17:04;;;;;;;8.75;3.88;;;;;;;;;;10489982;28;20048;-71
2023/10/03 16:22:08;;;;;;;9.30;3.85;;;;;;;;;;10489152;28;20474;-71
2023/10/03 16:27:12;;;;;;;6.95;3.15;;;;;;;;;;10491195;28;20075;-72
2023/10/03 16:32:15;;;;;;;7.05;3.78;;;;;;;;;;10486481;28;20060;-72
2023/10/03 16:37:19;;;;;;;8.65;3.67;;;;;;;;;;10473711;28;20539;-73
2023/10/03 16:42:22;;;;;;;7.95;4.10;;;;;;;;;;10494211;28;20041;-70
2023/10/03 16:47:25;;;;;;;5.97;2.75;;;;;;;;;;10487845;28;20041;-72
2023/10/03 16:52:29;;;;;;;10.57;4.07;;;;;;;;;;10490179;28;20075;-72
2023/10/03 16:57:32;;;;;;;11.57;4.13;;;;;;;;;;10489263;28;20041;-68
2023/10/03 17:02:34;;;;;;;7.13;3.90;;;;;;;;;;10486548;28;20167;-70
2023/10/03 17:07:40;;;;;;;11.90;4.22;;;;;;;;;;10489685;28;20444;-69
2023/10/03 17:12:42;;;;;;;7.45;3.63;;;;;;;;;;10482283;28;20559;-70
2023/10/03 17:17:53;;;;;;;6.80;4.00;;;;;;;;;;10467026;28;20049;-70
2023/10/03 17:23:18;;;;;;;;;;;;;;;;;;10464241;28;20521;-72
2023/10/03 17:28:22;;;;;;;7.18;4.03;;;;;;;;;;10489763;28;19924;-72
2023/10/03 17:33:25;;;;;;;8.57;4.13;;;;;;;;;;10486176;28;20047;-71
2023/10/03 17:38:29;;;;;;;8.82;4.43;;;;;;;;;;10488135;28;20044;-70
2023/10/03 17:43:33;;;;;;;10.02;4.40;;;;;;;;;;10488353;28;20094;-72
2023/10/03 17:48:36;;;;;;;9.30;5.00;;;;;;;;;;10487281;28;20037;-71
2023/10/03 17:53:38;;;;;;;10.75;4.80;;;;;;;;;;10487515;28;20048;-72
2023/10/03 17:58:43;;;;;;;10.05;4.85;;;;;;;;;;10464150;28;20554;-72
2023/10/03 18:03:45;;;;;;;7.30;4.03;;;;;;;;;;10480585;28;20068;-71
2023/10/03 18:08:48;;;;;;;9.68;5.18;;;;;;;;;;10478370;28;20197;-72
2023/10/03 18:13:52;;;;;;;7.82;4.15;;;;;;;;;;10474962;28;20064;-72
2023/10/03 18:18:55;;;;;;;8.15;4.47;;;;;;;;;;10475886;28;20139;-71
2023/10/03 18:23:58;;;;;;;8.90;3.60;;;;;;;;;;10476126;28;20052;-71
2023/10/03 18:29:02;;;;;;;7.00;3.10;;;;;;;;;;10476207;28;20075;-72
2023/10/03 18:34:05;;;;;;;12.95;1.63;;;;;;;;;;10477486;28;20499;-72
2023/10/03 18:39:08;;;;;;;8.85;1.85;;;;;;;;;;10476979;28;20058;-73
2023/10/03 18:44:14;;;;;;;6.93;1.90;;;;;;;;;;10468463;28;20516;-70
2023/10/03 18:49:17;;;;;;;7.18;1.88;;;;;;;;;;10477318;28;20413;-72
2023/10/03 18:54:20;;;;;;;4.77;1.70;;;;;;;;;;10483156;28;20068;-71
2023/10/03 18:59:25;;;;;;;5.30;1.92;;;;;;;;;;10476556;28;20075;-74
2023/10/03 19:04:27;;;;;;;6.53;1.63;;;;;;;;;;10475671;28;20048;-73
2023/10/03 19:09:30;;;;;;;6.95;2.08;;;;;;;;;;10474706;28;20296;-71
2023/10/03 19:14:34;;;;;;;3.57;1.60;;;;;;;;;;10475558;28;20028;-75
2023/10/03 19:19:37;;;;;;;4.90;1.67;;;;;;;;;;10477213;28;20048;-72
2023/10/03 19:24:42;;;;;;;4.97;1.93;;;;;;;;;;10479235;28;20060;-72
2023/10/03 19:29:46;;;;;;;2.70;1.35;;;;;;;;;;10474384;28;20306;-71
2023/10/03 19:34:49;;;;;;;3.60;1.40;;;;;;;;;;10478729;28;20055;-75
2023/10/03 19:39:51;;;;;;;4.97;1.60;;;;;;;;;;10475860;28;20064;-71
2023/10/03 19:44:55;;;;;;;6.33;1.50;;;;;;;;;;10479241;28;20076;-72
2023/10/03 19:49:58;;;;;;;3.63;1.50;;;;;;;;;;10479181;28;20083;-69
2023/10/03 19:55:04;;;;;;;5.87;1.90;;;;;;;;;;10489045;28;20053;-70
2023/10/03 20:00:11;;;;;;;3.38;1.50;;;;;;;;;;10484178;28;20138;-72
2023/10/03 20:05:14;;;;;;;3.45;1.40;;;;;;;;;;10483007;28;20443;-72
2023/10/03 20:10:19;;;;;;;9.48;4.20;;;;;;;;;;10488388;28;20041;-71
2023/10/03 20:15:23;;;;;;;2.20;1.10;;;;;;;;;;10484901;28;20036;-70
2023/10/03 20:20:28;;;;;;;5.13;1.40;;;;;;;;;;10482357;28;20044;-71
2023/10/03 20:25:31;;;;;;;2.75;1.13;;;;;;;;;;10485151;28;20493;-70
2023/10/03 20:30:35;;;;;;;3.13;1.27;;;;;;;;;;10485622;28;20062;-71
2023/10/03 20:35:42;;;;;;;3.03;0.98;;;;;;;;;;10484962;28;20128;-71
2023/10/03 20:40:55;;;;;;;2.33;1.17;;;;;;;;;;10487491;28;20067;-73
2023/10/03 20:45:59;;;;;;;2.50;1.10;;;;;;;;;;10467661;28;20097;-71
2023/10/03 20:51:02;;;;;;;3.78;1.02;;;;;;;;;;10483153;28;20036;-73
2023/10/03 20:56:05;;;;;;;3.27;1.30;;;;;;;;;;10483780;28;20055;-72
2023/10/03 21:01:09;;;;;;;1.83;0.93;;;;;;;;;;10481923;28;20080;-74
2023/10/03 21:06:12;;;;;;;1.60;1.02;;;;;;;;;;10486800;28;20051;-71
2023/10/03 21:11:15;;;;;;;1.13;0.70;;;;;;;;;;10492238;28;20539;-71
2023/10/03 21:16:20;;;;;;;2.42;1.25;;;;;;;;;;10490546;28;20074;-71
2023/10/03 21:21:23;;;;;;;2.97;1.25;;;;;;;;;;10483632;28;20037;-71
2023/10/03 21:26:27;;;;;;;2.00;1.07;;;;;;;;;;10486058;28;20051;-72
2023/10/03 21:31:30;;;;;;;3.13;1.10;;;;;;;;;;10483660;28;20045;-71
2023/10/03 21:36:33;;;;;;;2.92;1.42;;;;;;;;;;10480948;28;20056;-72
2023/10/03 21:41:36;;;;;;;3.20;1.30;;;;;;;;;;10480146;28;20033;-73
2023/10/03 21:46:41;;;;;;;1.88;1.00;;;;;;;;;;10484376;28;20064;-75
2023/10/03 21:51:43;;;;;;;3.90;1.35;;;;;;;;;;10485614;28;20748;-71
2023/10/03 21:56:46;;;;;;;2.10;1.02;;;;;;;;;;10482145;28;20271;-72
2023/10/03 22:01:55;;;;;;;3.15;1.73;;;;;;;;;;10479830;28;20137;-71
2023/10/03 22:06:58;;;;;;;3.47;1.42;;;;;;;;;;10474617;28;20032;-71
2023/10/03 22:12:01;;;;;;;2.08;1.30;;;;;;;;;;10482013;28;20135;-71
2023/10/03 22:17:04;;;;;;;;;;;;;;;;;;10479607;28;20482;-71
2023/10/03 22:22:08;;;;;;;2.70;1.30;;;;;;;;;;10480321;28;20027;-71
2023/10/03 22:27:11;;;;;;;7.82;1.27;;;;;;;;;;10483958;28;20127;-71
2023/10/03 22:32:13;;;;;;;3.65;1.30;;;;;;;;;;10478749;28;20152;-71
2023/10/03 22:37:17;;;;;;;4.82;1.40;;;;;;;;;;10479839;28;20132;-71
2023/10/03 22:42:21;;;;;;;3.40;0.95;;;;;;;;;;10479804;28;20144;-71
2023/10/03 22:47:24;;;;;;;;;;;;;;;;;;10480512;28;20032;-72
2023/10/03 22:52:28;;;;;;;3.08;1.48;;;;;;;;;;10477525;28;20069;-72
2023/10/03 22:57:30;;;;;;;2.65;1.40;;;;;;;;;;10478731;28;20102;-72
2023/10/03 23:02:33;;;;;;;2.42;1.33;;;;;;;;;;10478788;28;20060;-73
2023/10/03 23:07:39;;;;;;;2.55;1.42;;;;;;;;;;10476378;28;20086;-72
2023/10/03 23:12:42;;;;;;;4.22;1.65;;;;;;;;;;10478120;28;20056;-73
2023/10/03 23:17:44;;;;;;;2.50;1.30;;;;;;;;;;10481596;28;20044;-71
2023/10/03 23:22:49;;;;;;;4.07;1.50;;;;;;;;;;10480226;28;20044;-72
2023/10/03 23:27:52;;;;;;;2.55;1.30;;;;;;;;;;10491237;28;20106;-72
2023/10/03 23:32:54;;;;;;;3.47;1.40;;;;;;;;;;10485117;28;20147;-71
2023/10/03 23:37:59;;;;;;;4.07;1.20;;;;;;;;;;10486791;28;20045;-72
2023/10/03 23:43:02;;;;;;;2.42;1.42;;;;;;;;;;10486420;28;20064;-72
2023/10/03 23:48:05;;;;;;;2.72;1.20;;;;;;;;;;10487328;28;20033;-74
2023/10/03 23:53:10;;;;;;;0.85;0.50;;;;;;;;;;10485935;28;20068;-72
2023/10/03 23:58:12;;;;;;;2.40;1.30;;;;;;;;;;10488870;28;20044;-73
